sensor_id;sensor_type;location;lat;lon;timestamp;P1;durP1;ratioP1;P2;durP2;ratioP2
15843;SDS011;50807;52.436;13.346;2023-02-08T00:00:28;23.92;;;21.63;;
15843;SDS011;50807;52.436;13.346;2023-02-08T00:00:59;23.37;;;21.07;;
15843;SDS011;50807;52.436;13.346;2023-02-08T00:01:36;24.05;;;21.65;;
15843;SDS011;50807;52.436;13.346;2023-02-08T00:02:08;22.45;;;20.15;;
15843;SDS011;50807;52.436;13.346;2023-02-08T00:02:38;22.30;;;20.10;;
15843;SDS011;50807;52.436;13.346;2023-02-08T00:03:09;23.53;;;21.17;;
15843;SDS011;50807;52.436;13.346;2023-02-08T00:03:40;23.77;;;21.27;;
15843;SDS011;50807;52.436;13.346;2023-02-08T00:04:12;23.13;;;20.80;;
15843;SDS011;50807;52.436;13.346;2023-02-08T00:04:43;23.30;;;20.90;;
15843;SDS011;50807;52.436;13.346;2023-02-08T00:05:14;23.10;;;20.90;;
15843;SDS011;50807;52.436;13.346;2023-02-08T00:05:46;22.27;;;20.08;;
15843;SDS011;50807;52.436;13.346;2023-02-08T00:06:17;22.33;;;20.20;;
15843;SDS011;50807;52.436;13.346;2023-02-08T00:06:48;23.58;;;21.27;;
15843;SDS011;50807;52.436;13.346;2023-02-08T00:07:20;22.70;;;20.35;;
15843;SDS011;50807;52.436;13.346;2023-02-08T00:07:50;22.77;;;20.43;;
15843;SDS011;50807;52.436;13.346;2023-02-08T00:08:21;23.40;;;21.03;;
15843;SDS011;50807;52.436;13.346;2023-02-08T00:08:53;22.90;;;20.70;;
15843;SDS011;50807;52.436;13.346;2023-02-08T00:09:24;22.27;;;20.07;;
15843;SDS011;50807;52.436;13.346;2023-02-08T00:09:55;22.40;;;20.20;;
15843;SDS011;50807;52.436;13.346;2023-02-08T00:10:26;23.67;;;21.17;;
15843;SDS011;50807;52.436;13.346;2023-02-08T00:10:57;22.58;;;20.38;;
15843;SDS011;50807;52.436;13.346;2023-02-08T00:11:28;24.45;;;22.05;;
15843;SDS011;50807;52.436;13.346;2023-02-08T00:12:00;21.75;;;19.65;;
15843;SDS011;50807;52.436;13.346;2023-02-08T00:12:32;20.60;;;18.60;;
15843;SDS011;50807;52.436;13.346;2023-02-08T00:13:03;22.27;;;20.13;;
15843;SDS011;50807;52.436;13.346;2023-02-08T00:13:35;23.00;;;20.42;;
15843;SDS011;50807;52.436;13.346;2023-02-08T00:14:07;22.10;;;19.90;;
15843;SDS011;50807;52.436;13.346;2023-02-08T00:14:38;22.43;;;20.23;;
15843;SDS011;50807;52.436;13.346;2023-02-08T00:15:10;21.42;;;19.33;;
15843;SDS011;50807;52.436;13.346;2023-02-08T00:15:41;21.57;;;19.40;;
15843;SDS011;50807;52.436;13.346;2023-02-08T00:16:13;22.48;;;20.17;;
15843;SDS011;50807;52.436;13.346;2023-02-08T00:16:47;22.40;;;20.23;;
15843;SDS011;50807;52.436;13.346;2023-02-08T00:17:17;22.17;;;19.97;;
15843;SDS011;50807;52.436;13.346;2023-02-08T00:17:48;21.27;;;19.27;;
15843;SDS011;50807;52.436;13.346;2023-02-08T00:18:20;22.40;;;20.08;;
15843;SDS011;50807;52.436;13.346;2023-02-08T00:18:51;21.13;;;18.92;;
15843;SDS011;50807;52.436;13.346;2023-02-08T00:19:22;21.03;;;18.87;;
15843;SDS011;50807;52.436;13.346;2023-02-08T00:19:54;21.33;;;19.33;;
15843;SDS011;50807;52.436;13.346;2023-02-08T00:20:25;23.00;;;20.60;;
15843;SDS011;50807;52.436;13.346;2023-02-08T00:20:55;21.47;;;19.37;;
15843;SDS011;50807;52.436;13.346;2023-02-08T00:21:27;22.05;;;19.90;;
15843;SDS011;50807;52.436;13.346;2023-02-08T00:21:58;22.33;;;20.07;;
15843;SDS011;50807;52.436;13.346;2023-02-08T00:22:29;22.80;;;20.50;;
15843;SDS011;50807;52.436;13.346;2023-02-08T00:23:01;22.13;;;20.02;;
15843;SDS011;50807;52.436;13.346;2023-02-08T00:23:32;23.97;;;21.50;;
15843;SDS011;50807;52.436;13.346;2023-02-08T00:24:03;23.30;;;21.00;;
15843;SDS011;50807;52.436;13.346;2023-02-08T00:24:35;22.30;;;20.10;;
15843;SDS011;50807;52.436;13.346;2023-02-08T00:25:06;24.40;;;21.80;;
15843;SDS011;50807;52.436;13.346;2023-02-08T00:25:38;23.05;;;20.67;;
15843;SDS011;50807;52.436;13.346;2023-02-08T00:26:11;23.05;;;20.75;;
15843;SDS011;50807;52.436;13.346;2023-02-08T00:26:42;23.50;;;21.10;;
15843;SDS011;50807;52.436;13.346;2023-02-08T00:27:13;23.97;;;21.63;;
15843;SDS011;50807;52.436;13.346;2023-02-08T00:27:46;23.13;;;20.73;;
15843;SDS011;50807;52.436;13.346;2023-02-08T00:28:17;25.35;;;22.80;;
15843;SDS011;50807;52.436;13.346;2023-02-08T00:28:48;22.88;;;20.63;;
15843;SDS011;50807;52.436;13.346;2023-02-08T00:29:20;24.48;;;21.98;;
15843;SDS011;50807;52.436;13.346;2023-02-08T00:29:51;24.87;;;22.07;;
15843;SDS011;50807;52.436;13.346;2023-02-08T00:30:22;23.17;;;20.90;;
15843;SDS011;50807;52.436;13.346;2023-02-08T00:30:54;22.55;;;20.35;;
15843;SDS011;50807;52.436;13.346;2023-02-08T00:31:24;23.27;;;20.97;;
15843;SDS011;50807;52.436;13.346;2023-02-08T00:31:55;23.43;;;21.03;;
15843;SDS011;50807;52.436;13.346;2023-02-08T00:32:27;23.02;;;20.77;;
15843;SDS011;50807;52.436;13.346;2023-02-08T00:32:58;24.13;;;21.73;;
15843;SDS011;50807;52.436;13.346;2023-02-08T00:33:30;23.55;;;21.25;;
15843;SDS011;50807;52.436;13.346;2023-02-08T00:34:01;23.58;;;21.13;;
15843;SDS011;50807;52.436;13.346;2023-02-08T00:34:32;23.20;;;20.90;;
15843;SDS011;50807;52.436;13.346;2023-02-08T00:35:04;23.38;;;21.10;;
15843;SDS011;50807;52.436;13.346;2023-02-08T00:35:36;24.20;;;21.67;;
15843;SDS011;50807;52.436;13.346;2023-02-08T00:36:08;23.67;;;21.20;;
15843;SDS011;50807;52.436;13.346;2023-02-08T00:36:41;24.05;;;21.60;;
15843;SDS011;50807;52.436;13.346;2023-02-08T00:37:12;23.92;;;21.45;;
15843;SDS011;50807;52.436;13.346;2023-02-08T00:37:43;25.07;;;22.57;;
15843;SDS011;50807;52.436;13.346;2023-02-08T00:38:14;23.60;;;21.17;;
15843;SDS011;50807;52.436;13.346;2023-02-08T00:38:46;22.98;;;20.60;;
15843;SDS011;50807;52.436;13.346;2023-02-08T00:39:16;24.37;;;22.07;;
15843;SDS011;50807;52.436;13.346;2023-02-08T00:39:50;25.42;;;22.80;;
15843;SDS011;50807;52.436;13.346;2023-02-08T00:40:21;25.35;;;22.85;;
15843;SDS011;50807;52.436;13.346;2023-02-08T00:40:52;24.00;;;21.60;;
15843;SDS011;50807;52.436;13.346;2023-02-08T00:41:23;24.45;;;21.95;;
15843;SDS011;50807;52.436;13.346;2023-02-08T00:41:54;23.40;;;21.13;;
15843;SDS011;50807;52.436;13.346;2023-02-08T00:42:26;23.15;;;20.85;;
15843;SDS011;50807;52.436;13.346;2023-02-08T00:42:59;23.58;;;21.17;;
15843;SDS011;50807;52.436;13.346;2023-02-08T00:43:29;24.05;;;21.55;;
15843;SDS011;50807;52.436;13.346;2023-02-08T00:44:01;22.40;;;20.20;;
15843;SDS011;50807;52.436;13.346;2023-02-08T00:44:32;23.53;;;21.13;;
15843;SDS011;50807;52.436;13.346;2023-02-08T00:45:03;23.38;;;21.08;;
15843;SDS011;50807;52.436;13.346;2023-02-08T00:45:36;23.92;;;21.63;;
15843;SDS011;50807;52.436;13.346;2023-02-08T00:46:06;22.70;;;20.40;;
15843;SDS011;50807;52.436;13.346;2023-02-08T00:46:38;22.42;;;20.25;;
15843;SDS011;50807;52.436;13.346;2023-02-08T00:47:10;23.42;;;21.13;;
15843;SDS011;50807;52.436;13.346;2023-02-08T00:47:40;23.57;;;21.23;;
15843;SDS011;50807;52.436;13.346;2023-02-08T00:48:11;23.67;;;21.37;;
15843;SDS011;50807;52.436;13.346;2023-02-08T00:48:43;22.27;;;20.00;;
15843;SDS011;50807;52.436;13.346;2023-02-08T00:49:14;23.37;;;20.90;;
15843;SDS011;50807;52.436;13.346;2023-02-08T00:49:45;22.77;;;20.57;;
15843;SDS011;50807;52.436;13.346;2023-02-08T00:50:16;23.00;;;20.70;;
15843;SDS011;50807;52.436;13.346;2023-02-08T00:50:55;24.23;;;21.83;;
15843;SDS011;50807;52.436;13.346;2023-02-08T00:51:28;22.27;;;20.10;;
15843;SDS011;50807;52.436;13.346;2023-02-08T00:52:00;23.52;;;21.23;;
15843;SDS011;50807;52.436;13.346;2023-02-08T00:52:31;23.63;;;21.23;;
15843;SDS011;50807;52.436;13.346;2023-02-08T00:53:02;22.98;;;20.77;;
15843;SDS011;50807;52.436;13.346;2023-02-08T00:53:34;23.75;;;21.25;;
15843;SDS011;50807;52.436;13.346;2023-02-08T00:54:06;23.55;;;21.15;;
15843;SDS011;50807;52.436;13.346;2023-02-08T00:54:42;24.33;;;21.92;;
15843;SDS011;50807;52.436;13.346;2023-02-08T00:55:14;23.60;;;21.23;;
15843;SDS011;50807;52.436;13.346;2023-02-08T00:55:49;23.77;;;21.37;;
15843;SDS011;50807;52.436;13.346;2023-02-08T00:56:20;23.48;;;21.15;;
15843;SDS011;50807;52.436;13.346;2023-02-08T00:56:52;24.02;;;21.73;;
15843;SDS011;50807;52.436;13.346;2023-02-08T00:57:23;23.50;;;21.10;;
15843;SDS011;50807;52.436;13.346;2023-02-08T00:57:53;23.73;;;21.43;;
15843;SDS011;50807;52.436;13.346;2023-02-08T00:58:27;24.05;;;21.65;;
15843;SDS011;50807;52.436;13.346;2023-02-08T00:58:58;23.25;;;20.88;;
15843;SDS011;50807;52.436;13.346;2023-02-08T00:59:29;23.87;;;21.37;;
15843;SDS011;50807;52.436;13.346;2023-02-08T01:00:00;24.13;;;21.73;;
15843;SDS011;50807;52.436;13.346;2023-02-08T01:00:32;23.88;;;21.55;;
15843;SDS011;50807;52.436;13.346;2023-02-08T01:01:03;24.80;;;22.30;;
15843;SDS011;50807;52.436;13.346;2023-02-08T01:01:37;24.60;;;22.08;;
15843;SDS011;50807;52.436;13.346;2023-02-08T01:02:08;25.45;;;22.90;;
15843;SDS011;50807;52.436;13.346;2023-02-08T01:02:39;24.83;;;22.33;;
15843;SDS011;50807;52.436;13.346;2023-02-08T01:03:11;24.80;;;22.30;;
15843;SDS011;50807;52.436;13.346;2023-02-08T01:03:42;25.17;;;22.57;;
15843;SDS011;50807;52.436;13.346;2023-02-08T01:04:13;23.98;;;21.58;;
15843;SDS011;50807;52.436;13.346;2023-02-08T01:04:45;24.95;;;22.50;;
15843;SDS011;50807;52.436;13.346;2023-02-08T01:05:16;25.33;;;22.75;;
15843;SDS011;50807;52.436;13.346;2023-02-08T01:05:47;24.20;;;21.80;;
15843;SDS011;50807;52.436;13.346;2023-02-08T01:06:19;25.48;;;22.98;;
15843;SDS011;50807;52.436;13.346;2023-02-08T01:06:50;24.67;;;22.20;;
15843;SDS011;50807;52.436;13.346;2023-02-08T01:07:21;24.53;;;22.07;;
15843;SDS011;50807;52.436;13.346;2023-02-08T01:07:52;26.10;;;23.50;;
15843;SDS011;50807;52.436;13.346;2023-02-08T01:08:23;24.97;;;22.50;;
15843;SDS011;50807;52.436;13.346;2023-02-08T01:08:54;24.20;;;21.77;;
15843;SDS011;50807;52.436;13.346;2023-02-08T01:09:26;24.35;;;21.90;;
15843;SDS011;50807;52.436;13.346;2023-02-08T01:09:56;23.80;;;21.50;;
15843;SDS011;50807;52.436;13.346;2023-02-08T01:10:29;24.67;;;22.00;;
15843;SDS011;50807;52.436;13.346;2023-02-08T01:11:03;25.23;;;22.67;;
15843;SDS011;50807;52.436;13.346;2023-02-08T01:11:36;25.02;;;22.55;;
15843;SDS011;50807;52.436;13.346;2023-02-08T01:12:08;24.27;;;21.98;;
15843;SDS011;50807;52.436;13.346;2023-02-08T01:12:39;24.87;;;22.53;;
15843;SDS011;50807;52.436;13.346;2023-02-08T01:13:10;25.87;;;23.23;;
15843;SDS011;50807;52.436;13.346;2023-02-08T01:13:42;24.73;;;22.33;;
15843;SDS011;50807;52.436;13.346;2023-02-08T01:14:14;23.67;;;21.23;;
15843;SDS011;50807;52.436;13.346;2023-02-08T01:14:45;23.90;;;21.40;;
15843;SDS011;50807;52.436;13.346;2023-02-08T01:15:16;23.40;;;21.17;;
15843;SDS011;50807;52.436;13.346;2023-02-08T01:15:48;24.77;;;22.27;;
15843;SDS011;50807;52.436;13.346;2023-02-08T01:16:20;24.80;;;22.30;;
15843;SDS011;50807;52.436;13.346;2023-02-08T01:16:54;23.02;;;20.75;;
15843;SDS011;50807;52.436;13.346;2023-02-08T01:17:26;25.02;;;22.63;;
15843;SDS011;50807;52.436;13.346;2023-02-08T01:17:57;24.60;;;22.20;;
15843;SDS011;50807;52.436;13.346;2023-02-08T01:18:28;24.60;;;21.97;;
15843;SDS011;50807;52.436;13.346;2023-02-08T01:19:00;23.77;;;21.38;;
15843;SDS011;50807;52.436;13.346;2023-02-08T01:19:33;23.52;;;21.23;;
15843;SDS011;50807;52.436;13.346;2023-02-08T01:20:04;24.93;;;22.37;;
15843;SDS011;50807;52.436;13.346;2023-02-08T01:20:37;24.65;;;22.15;;
15843;SDS011;50807;52.436;13.346;2023-02-08T01:21:09;24.25;;;21.95;;
15843;SDS011;50807;52.436;13.346;2023-02-08T01:21:42;24.20;;;21.80;;
15843;SDS011;50807;52.436;13.346;2023-02-08T01:22:14;24.02;;;21.63;;
15843;SDS011;50807;52.436;13.346;2023-02-08T01:22:45;25.70;;;22.93;;
15843;SDS011;50807;52.436;13.346;2023-02-08T01:23:16;25.07;;;22.57;;
15843;SDS011;50807;52.436;13.346;2023-02-08T01:23:48;25.13;;;22.70;;
15843;SDS011;50807;52.436;13.346;2023-02-08T01:24:20;24.63;;;22.23;;
15843;SDS011;50807;52.436;13.346;2023-02-08T01:24:51;24.30;;;21.90;;
15843;SDS011;50807;52.436;13.346;2023-02-08T01:25:22;24.50;;;22.00;;
15843;SDS011;50807;52.436;13.346;2023-02-08T01:25:53;24.00;;;21.63;;
15843;SDS011;50807;52.436;13.346;2023-02-08T01:26:24;24.43;;;22.03;;
15843;SDS011;50807;52.436;13.346;2023-02-08T01:26:57;23.73;;;21.30;;
15843;SDS011;50807;52.436;13.346;2023-02-08T01:27:27;23.70;;;21.40;;
15843;SDS011;50807;52.436;13.346;2023-02-08T01:27:58;23.63;;;21.40;;
15843;SDS011;50807;52.436;13.346;2023-02-08T01:28:30;24.10;;;21.70;;
15843;SDS011;50807;52.436;13.346;2023-02-08T01:29:02;23.60;;;21.40;;
15843;SDS011;50807;52.436;13.346;2023-02-08T01:29:34;24.23;;;21.92;;
15843;SDS011;50807;52.436;13.346;2023-02-08T01:30:06;24.60;;;22.25;;
15843;SDS011;50807;52.436;13.346;2023-02-08T01:30:38;25.38;;;22.75;;
15843;SDS011;50807;52.436;13.346;2023-02-08T01:31:09;25.27;;;22.73;;
15843;SDS011;50807;52.436;13.346;2023-02-08T01:31:44;24.30;;;21.92;;
15843;SDS011;50807;52.436;13.346;2023-02-08T01:32:15;25.05;;;22.48;;
15843;SDS011;50807;52.436;13.346;2023-02-08T01:32:46;23.50;;;21.20;;
15843;SDS011;50807;52.436;13.346;2023-02-08T01:33:17;24.80;;;22.30;;
15843;SDS011;50807;52.436;13.346;2023-02-08T01:33:48;23.43;;;21.10;;
15843;SDS011;50807;52.436;13.346;2023-02-08T01:34:19;24.77;;;21.92;;
15843;SDS011;50807;52.436;13.346;2023-02-08T01:34:51;25.10;;;22.60;;
15843;SDS011;50807;52.436;13.346;2023-02-08T01:35:22;24.43;;;21.93;;
15843;SDS011;50807;52.436;13.346;2023-02-08T01:35:53;24.00;;;21.53;;
15843;SDS011;50807;52.436;13.346;2023-02-08T01:36:25;24.55;;;22.23;;
15843;SDS011;50807;52.436;13.346;2023-02-08T01:36:58;24.65;;;22.10;;
15843;SDS011;50807;52.436;13.346;2023-02-08T01:37:29;23.70;;;21.40;;
15843;SDS011;50807;52.436;13.346;2023-02-08T01:38:00;24.55;;;22.10;;
15843;SDS011;50807;52.436;13.346;2023-02-08T01:38:31;24.83;;;22.53;;
15843;SDS011;50807;52.436;13.346;2023-02-08T01:39:03;25.08;;;22.65;;
15843;SDS011;50807;52.436;13.346;2023-02-08T01:39:37;25.17;;;22.63;;
15843;SDS011;50807;52.436;13.346;2023-02-08T01:40:08;24.80;;;22.30;;
15843;SDS011;50807;52.436;13.346;2023-02-08T01:40:40;24.55;;;22.15;;
15843;SDS011;50807;52.436;13.346;2023-02-08T01:41:12;24.13;;;21.63;;
15843;SDS011;50807;52.436;13.346;2023-02-08T01:41:47;23.63;;;21.38;;
15843;SDS011;50807;52.436;13.346;2023-02-08T01:42:18;24.07;;;21.77;;
15843;SDS011;50807;52.436;13.346;2023-02-08T01:42:49;23.90;;;21.50;;
15843;SDS011;50807;52.436;13.346;2023-02-08T01:43:22;25.05;;;22.60;;
15843;SDS011;50807;52.436;13.346;2023-02-08T01:45:26;22.52;;;20.30;;
15843;SDS011;50807;52.436;13.346;2023-02-08T01:45:59;24.10;;;21.73;;
15843;SDS011;50807;52.436;13.346;2023-02-08T01:46:32;23.77;;;21.38;;
15843;SDS011;50807;52.436;13.346;2023-02-08T01:47:05;23.92;;;21.52;;
15843;SDS011;50807;52.436;13.346;2023-02-08T01:47:36;23.87;;;21.47;;
15843;SDS011;50807;52.436;13.346;2023-02-08T01:48:07;24.90;;;22.40;;
15843;SDS011;50807;52.436;13.346;2023-02-08T01:48:46;23.98;;;21.67;;
15843;SDS011;50807;52.436;13.346;2023-02-08T01:49:18;24.10;;;21.65;;
15843;SDS011;50807;52.436;13.346;2023-02-08T01:49:55;24.25;;;21.85;;
15843;SDS011;50807;52.436;13.346;2023-02-08T01:50:28;24.13;;;21.70;;
15843;SDS011;50807;52.436;13.346;2023-02-08T01:51:05;24.98;;;22.38;;
15843;SDS011;50807;52.436;13.346;2023-02-08T01:51:48;24.98;;;22.48;;
15843;SDS011;50807;52.436;13.346;2023-02-08T01:52:25;24.33;;;21.70;;
15843;SDS011;50807;52.436;13.346;2023-02-08T01:52:57;24.27;;;21.85;;
15843;SDS011;50807;52.436;13.346;2023-02-08T01:53:29;24.50;;;22.00;;
15843;SDS011;50807;52.436;13.346;2023-02-08T01:54:05;25.80;;;23.13;;
15843;SDS011;50807;52.436;13.346;2023-02-08T01:54:41;24.38;;;21.98;;
15843;SDS011;50807;52.436;13.346;2023-02-08T01:55:19;25.20;;;22.63;;
15843;SDS011;50807;52.436;13.346;2023-02-08T01:55:56;24.65;;;22.17;;
15843;SDS011;50807;52.436;13.346;2023-02-08T01:56:31;24.75;;;22.38;;
15843;SDS011;50807;52.436;13.346;2023-02-08T01:57:08;25.35;;;22.70;;
15843;SDS011;50807;52.436;13.346;2023-02-08T01:57:39;25.90;;;23.30;;
15843;SDS011;50807;52.436;13.346;2023-02-08T01:58:12;25.73;;;23.17;;
15843;SDS011;50807;52.436;13.346;2023-02-08T01:58:45;25.40;;;22.83;;
15843;SDS011;50807;52.436;13.346;2023-02-08T01:59:23;25.65;;;23.05;;
15843;SDS011;50807;52.436;13.346;2023-02-08T02:00:03;24.38;;;21.77;;
15843;SDS011;50807;52.436;13.346;2023-02-08T02:00:43;24.52;;;22.08;;
15843;SDS011;50807;52.436;13.346;2023-02-08T02:01:15;24.80;;;22.40;;
15843;SDS011;50807;52.436;13.346;2023-02-08T02:01:46;25.55;;;22.85;;
15843;SDS011;50807;52.436;13.346;2023-02-08T02:02:22;25.60;;;23.10;;
15843;SDS011;50807;52.436;13.346;2023-02-08T02:02:55;25.63;;;22.92;;
15843;SDS011;50807;52.436;13.346;2023-02-08T02:03:29;24.90;;;22.40;;
15843;SDS011;50807;52.436;13.346;2023-02-08T02:04:01;26.58;;;24.00;;
15843;SDS011;50807;52.436;13.346;2023-02-08T02:04:34;25.17;;;22.67;;
15843;SDS011;50807;52.436;13.346;2023-02-08T02:05:05;25.77;;;23.23;;
15843;SDS011;50807;52.436;13.346;2023-02-08T02:05:39;26.33;;;23.42;;
15843;SDS011;50807;52.436;13.346;2023-02-08T02:06:14;23.80;;;21.40;;
15843;SDS011;50807;52.436;13.346;2023-02-08T02:06:52;25.73;;;23.00;;
15843;SDS011;50807;52.436;13.346;2023-02-08T02:07:27;24.73;;;22.25;;
15843;SDS011;50807;52.436;13.346;2023-02-08T02:08:00;25.30;;;22.90;;
15843;SDS011;50807;52.436;13.346;2023-02-08T02:08:32;25.30;;;22.73;;
15843;SDS011;50807;52.436;13.346;2023-02-08T02:09:04;26.55;;;23.85;;
15843;SDS011;50807;52.436;13.346;2023-02-08T02:09:43;25.42;;;22.98;;
15843;SDS011;50807;52.436;13.346;2023-02-08T02:10:22;24.48;;;22.13;;
15843;SDS011;50807;52.436;13.346;2023-02-08T02:10:57;24.13;;;21.60;;
15843;SDS011;50807;52.436;13.346;2023-02-08T02:11:29;25.35;;;22.75;;
15843;SDS011;50807;52.436;13.346;2023-02-08T02:12:00;25.80;;;23.13;;
15843;SDS011;50807;52.436;13.346;2023-02-08T02:12:31;24.80;;;22.30;;
15843;SDS011;50807;52.436;13.346;2023-02-08T02:13:06;25.67;;;23.10;;
15843;SDS011;50807;52.436;13.346;2023-02-08T02:13:43;25.05;;;22.02;;
15843;SDS011;50807;52.436;13.346;2023-02-08T02:14:14;25.15;;;22.65;;
15843;SDS011;50807;52.436;13.346;2023-02-08T02:14:46;24.63;;;22.02;;
15843;SDS011;50807;52.436;13.346;2023-02-08T02:15:17;24.48;;;21.98;;
15843;SDS011;50807;52.436;13.346;2023-02-08T02:15:50;24.63;;;22.23;;
15843;SDS011;50807;52.436;13.346;2023-02-08T02:16:22;23.50;;;21.20;;
15843;SDS011;50807;52.436;13.346;2023-02-08T02:16:53;25.37;;;22.90;;
15843;SDS011;50807;52.436;13.346;2023-02-08T02:17:24;24.00;;;21.60;;
15843;SDS011;50807;52.436;13.346;2023-02-08T02:17:56;24.30;;;21.77;;
15843;SDS011;50807;52.436;13.346;2023-02-08T02:18:27;24.67;;;22.17;;
15843;SDS011;50807;52.436;13.346;2023-02-08T02:19:01;24.35;;;21.92;;
15843;SDS011;50807;52.436;13.346;2023-02-08T02:19:51;23.65;;;21.25;;
15843;SDS011;50807;52.436;13.346;2023-02-08T02:20:37;23.00;;;20.73;;
15843;SDS011;50807;52.436;13.346;2023-02-08T02:21:44;23.85;;;21.35;;
15843;SDS011;50807;52.436;13.346;2023-02-08T02:24:09;22.05;;;19.80;;
15843;SDS011;50807;52.436;13.346;2023-02-08T02:25:22;21.95;;;19.67;;
15843;SDS011;50807;52.436;13.346;2023-02-08T02:26:29;21.77;;;19.58;;
15843;SDS011;50807;52.436;13.346;2023-02-08T02:30:12;20.42;;;18.33;;
15843;SDS011;50807;52.436;13.346;2023-02-08T02:32:12;19.83;;;17.73;;
15843;SDS011;50807;52.436;13.346;2023-02-08T02:33:15;19.95;;;17.95;;
15843;SDS011;50807;52.436;13.346;2023-02-08T02:34:22;19.73;;;17.63;;
15843;SDS011;50807;52.436;13.346;2023-02-08T02:35:02;20.02;;;18.02;;
15843;SDS011;50807;52.436;13.346;2023-02-08T02:35:41;20.13;;;18.13;;
15843;SDS011;50807;52.436;13.346;2023-02-08T02:36:23;24.70;;;19.33;;
15843;SDS011;50807;52.436;13.346;2023-02-08T02:37:07;22.13;;;19.75;;
15843;SDS011;50807;52.436;13.346;2023-02-08T02:38:02;19.77;;;17.77;;
15843;SDS011;50807;52.436;13.346;2023-02-08T02:38:45;19.88;;;17.85;;
15843;SDS011;50807;52.436;13.346;2023-02-08T02:39:33;20.75;;;18.60;;
15843;SDS011;50807;52.436;13.346;2023-02-08T02:40:14;20.13;;;17.95;;
15843;SDS011;50807;52.436;13.346;2023-02-08T02:40:58;19.92;;;17.92;;
15843;SDS011;50807;52.436;13.346;2023-02-08T02:41:39;20.25;;;18.15;;
15843;SDS011;50807;52.436;13.346;2023-02-08T02:42:42;19.55;;;17.55;;
15843;SDS011;50807;52.436;13.346;2023-02-08T02:43:50;19.67;;;17.67;;
15843;SDS011;50807;52.436;13.346;2023-02-08T02:44:29;20.20;;;18.17;;
15843;SDS011;50807;52.436;13.346;2023-02-08T02:45:09;18.98;;;17.08;;
15843;SDS011;50807;52.436;13.346;2023-02-08T02:45:53;19.20;;;17.30;;
15843;SDS011;50807;52.436;13.346;2023-02-08T02:46:34;20.23;;;18.13;;
15843;SDS011;50807;52.436;13.346;2023-02-08T02:47:15;20.77;;;18.55;;
15843;SDS011;50807;52.436;13.346;2023-02-08T02:47:57;20.75;;;18.65;;
15843;SDS011;50807;52.436;13.346;2023-02-08T02:48:39;20.00;;;18.13;;
15843;SDS011;50807;52.436;13.346;2023-02-08T02:49:17;19.80;;;17.80;;
15843;SDS011;50807;52.436;13.346;2023-02-08T02:49:57;21.00;;;18.90;;
15843;SDS011;50807;52.436;13.346;2023-02-08T02:50:39;19.83;;;17.80;;
15843;SDS011;50807;52.436;13.346;2023-02-08T02:51:15;20.80;;;18.60;;
15843;SDS011;50807;52.436;13.346;2023-02-08T02:51:56;20.88;;;18.80;;
15843;SDS011;50807;52.436;13.346;2023-02-08T02:52:33;20.50;;;18.30;;
15843;SDS011;50807;52.436;13.346;2023-02-08T02:53:11;21.48;;;19.33;;
15843;SDS011;50807;52.436;13.346;2023-02-08T02:53:51;20.17;;;18.10;;
15843;SDS011;50807;52.436;13.346;2023-02-08T02:54:29;19.73;;;17.75;;
15843;SDS011;50807;52.436;13.346;2023-02-08T02:55:09;19.90;;;18.00;;
15843;SDS011;50807;52.436;13.346;2023-02-08T02:55:46;20.25;;;18.25;;
15843;SDS011;50807;52.436;13.346;2023-02-08T02:56:27;19.27;;;17.35;;
15843;SDS011;50807;52.436;13.346;2023-02-08T02:57:05;20.08;;;18.00;;
15843;SDS011;50807;52.436;13.346;2023-02-08T02:57:40;19.58;;;17.67;;
15843;SDS011;50807;52.436;13.346;2023-02-08T02:58:18;19.98;;;18.05;;
15843;SDS011;50807;52.436;13.346;2023-02-08T02:58:51;19.27;;;17.38;;
15843;SDS011;50807;52.436;13.346;2023-02-08T02:59:30;20.23;;;18.17;;
15843;SDS011;50807;52.436;13.346;2023-02-08T03:00:05;21.00;;;18.85;;
15843;SDS011;50807;52.436;13.346;2023-02-08T03:00:39;20.40;;;18.35;;
15843;SDS011;50807;52.436;13.346;2023-02-08T03:01:10;19.92;;;17.92;;
15843;SDS011;50807;52.436;13.346;2023-02-08T03:01:42;20.88;;;18.77;;
15843;SDS011;50807;52.436;13.346;2023-02-08T03:02:17;20.52;;;18.50;;
15843;SDS011;50807;52.436;13.346;2023-02-08T03:02:47;19.80;;;17.80;;
15843;SDS011;50807;52.436;13.346;2023-02-08T03:03:21;20.17;;;18.08;;
15843;SDS011;50807;52.436;13.346;2023-02-08T03:03:54;20.38;;;18.27;;
15843;SDS011;50807;52.436;13.346;2023-02-08T03:04:47;21.35;;;19.25;;
15843;SDS011;50807;52.436;13.346;2023-02-08T03:05:24;19.38;;;17.42;;
15843;SDS011;50807;52.436;13.346;2023-02-08T03:06:01;20.38;;;18.27;;
15843;SDS011;50807;52.436;13.346;2023-02-08T03:06:36;20.63;;;18.58;;
15843;SDS011;50807;52.436;13.346;2023-02-08T03:07:36;19.65;;;17.73;;
15843;SDS011;50807;52.436;13.346;2023-02-08T03:08:45;19.25;;;17.35;;
15843;SDS011;50807;52.436;13.346;2023-02-08T03:09:45;18.60;;;16.73;;
15843;SDS011;50807;52.436;13.346;2023-02-08T03:11:44;17.48;;;15.68;;
15843;SDS011;50807;52.436;13.346;2023-02-08T03:12:29;18.20;;;16.40;;
15843;SDS011;50807;52.436;13.346;2023-02-08T03:13:15;17.60;;;15.88;;
15843;SDS011;50807;52.436;13.346;2023-02-08T03:14:17;18.65;;;16.65;;
15843;SDS011;50807;52.436;13.346;2023-02-08T03:15:04;18.00;;;16.10;;
15843;SDS011;50807;52.436;13.346;2023-02-08T03:15:48;18.52;;;16.63;;
15843;SDS011;50807;52.436;13.346;2023-02-08T03:16:39;18.58;;;16.77;;
15843;SDS011;50807;52.436;13.346;2023-02-08T03:17:36;18.15;;;16.23;;
15843;SDS011;50807;52.436;13.346;2023-02-08T03:18:27;17.75;;;15.93;;
15843;SDS011;50807;52.436;13.346;2023-02-08T03:19:08;17.63;;;15.82;;
15843;SDS011;50807;52.436;13.346;2023-02-08T03:19:51;18.45;;;16.58;;
15843;SDS011;50807;52.436;13.346;2023-02-08T03:20:32;18.92;;;17.02;;
15843;SDS011;50807;52.436;13.346;2023-02-08T03:21:11;17.67;;;15.95;;
15843;SDS011;50807;52.436;13.346;2023-02-08T03:21:49;18.73;;;16.70;;
15843;SDS011;50807;52.436;13.346;2023-02-08T03:22:29;18.33;;;16.45;;
15843;SDS011;50807;52.436;13.346;2023-02-08T03:23:14;18.17;;;16.42;;
15843;SDS011;50807;52.436;13.346;2023-02-08T03:23:54;18.02;;;16.02;;
15843;SDS011;50807;52.436;13.346;2023-02-08T03:24:36;18.08;;;16.27;;
15843;SDS011;50807;52.436;13.346;2023-02-08T03:25:21;18.70;;;16.80;;
15843;SDS011;50807;52.436;13.346;2023-02-08T03:25:59;19.42;;;17.45;;
15843;SDS011;50807;52.436;13.346;2023-02-08T03:26:37;18.10;;;16.27;;
15843;SDS011;50807;52.436;13.346;2023-02-08T03:27:21;18.55;;;16.73;;
15843;SDS011;50807;52.436;13.346;2023-02-08T03:28:00;18.55;;;16.73;;
15843;SDS011;50807;52.436;13.346;2023-02-08T03:28:44;18.92;;;17.10;;
15843;SDS011;50807;52.436;13.346;2023-02-08T03:29:30;18.15;;;16.25;;
15843;SDS011;50807;52.436;13.346;2023-02-08T03:30:14;17.52;;;15.70;;
15843;SDS011;50807;52.436;13.346;2023-02-08T03:30:52;18.48;;;16.70;;
15843;SDS011;50807;52.436;13.346;2023-02-08T03:31:37;17.17;;;15.48;;
15843;SDS011;50807;52.436;13.346;2023-02-08T03:32:16;18.50;;;16.67;;